createdAt,value
2018-01-19T00:00:06.566Z,21.33
2018-01-19T00:02:34.205Z,24.33
2018-01-19T00:05:02.300Z,21.40
2018-01-19T00:07:30.067Z,15.07
2018-01-19T00:09:57.571Z,27.97
2018-01-19T00:12:25.255Z,30.43
2018-01-19T00:14:54.447Z,19.87
2018-01-19T00:17:21.938Z,25.07
2018-01-19T00:19:49.802Z,17.60
2018-01-19T00:22:17.299Z,21.57
2018-01-19T00:24:45.001Z,18.53
2018-01-19T00:27:13.097Z,20.70
2018-01-19T00:29:40.857Z,20.50
2018-01-19T00:32:09.198Z,23.40
2018-01-19T00:34:36.707Z,21.33
2018-01-19T00:37:04.198Z,14.60
2018-01-19T00:39:31.708Z,27.47
2018-01-19T00:41:59.204Z,12.87
2018-01-19T00:44:27.500Z,21.43
2018-01-19T00:46:55.230Z,17.33
2018-01-19T00:49:22.734Z,17.90
2018-01-19T00:51:50.424Z,13.83
2018-01-19T00:54:18.507Z,11.80
2018-01-19T00:56:47.202Z,11.93
2018-01-19T00:59:14.713Z,16.63
2018-01-19T01:01:43.351Z,17.00
2018-01-19T01:04:10.855Z,10.80
2018-01-19T01:06:38.402Z,11.73
2018-01-19T01:09:05.995Z,14.70
2018-01-19T01:11:33.486Z,12.10
2018-01-19T01:14:00.975Z,8.43
2018-01-19T01:16:28.678Z,13.03
2018-01-19T01:18:56.434Z,21.67
2018-01-19T01:21:24.830Z,24.50
2018-01-19T01:23:52.595Z,17.23
2018-01-19T01:26:20.100Z,14.40
2018-01-19T01:28:47.611Z,12.57
2018-01-19T01:31:16.219Z,14.67
2018-01-19T01:33:43.715Z,16.43
2018-01-19T01:36:11.781Z,15.13
2018-01-19T01:38:40.303Z,11.17
2018-01-19T01:41:07.816Z,10.40
2018-01-19T01:43:35.615Z,14.50
2018-01-19T01:46:03.514Z,15.00
2018-01-19T01:48:31.986Z,15.33
2018-01-19T01:51:00.403Z,19.53
2018-01-19T01:53:27.895Z,20.77
2018-01-19T01:55:55.402Z,13.23
2018-01-19T01:58:23.111Z,15.60
2018-01-19T02:00:50.871Z,14.70
2018-01-19T02:03:18.821Z,16.03
2018-01-19T02:05:46.402Z,25.93
2018-01-19T02:08:13.903Z,17.93
2018-01-19T02:10:42.163Z,19.97
2018-01-19T02:13:11.531Z,17.23
2018-01-19T02:15:39.414Z,15.47
2018-01-19T02:18:07.382Z,16.83
2018-01-19T02:20:34.880Z,20.10
2018-01-19T02:23:02.587Z,12.53
2018-01-19T02:25:30.229Z,26.47
2018-01-19T02:27:57.714Z,14.80
2018-01-19T02:30:25.267Z,18.10
2018-01-19T02:32:53.083Z,17.83
2018-01-19T02:35:20.799Z,19.57
2018-01-19T02:37:48.792Z,22.40
2018-01-19T02:40:16.314Z,20.27
2018-01-19T02:42:43.829Z,17.43
2018-01-19T02:45:12.392Z,17.97
2018-01-19T02:47:40.535Z,23.30
2018-01-19T02:50:09.339Z,17.90
2018-01-19T02:52:36.979Z,18.57
2018-01-19T02:55:05.371Z,22.70
2018-01-19T02:57:33.279Z,20.67
2018-01-19T03:00:01.557Z,16.93
2018-01-19T03:02:29.063Z,12.50
2018-01-19T03:04:56.719Z,21.27
2018-01-19T03:07:24.371Z,17.30
2018-01-19T03:09:52.554Z,20.27
2018-01-19T03:12:20.568Z,16.57
2018-01-19T03:14:48.066Z,14.17
2018-01-19T03:17:15.575Z,23.23
2018-01-19T03:19:43.079Z,25.23
2018-01-19T03:22:11.714Z,25.60
2018-01-19T03:24:39.725Z,24.10
2018-01-19T03:27:07.823Z,19.93
2018-01-19T03:29:35.331Z,15.97
2018-01-19T03:32:03.310Z,27.80
2018-01-19T03:34:30.811Z,21.40
2018-01-19T03:36:58.314Z,25.17
2018-01-19T03:39:25.962Z,22.13
2018-01-19T03:41:53.482Z,24.50
2018-01-19T03:44:21.247Z,22.43
2018-01-19T03:46:48.742Z,20.50
2018-01-19T03:49:16.251Z,21.00
2018-01-19T03:51:43.923Z,21.53
2018-01-19T03:54:11.429Z,26.90
2018-01-19T03:56:39.330Z,24.10
2018-01-19T03:59:07.596Z,22.57
2018-01-19T04:01:35.591Z,20.20
2018-01-19T04:04:03.659Z,15.00
2018-01-19T04:06:31.423Z,18.80
2018-01-19T04:08:59.199Z,17.40
2018-01-19T04:11:27.977Z,16.47
2018-01-19T04:13:55.642Z,19.50
2018-01-19T04:16:23.146Z,33.33
2018-01-19T04:18:50.643Z,23.63
2018-01-19T04:21:18.314Z,17.83
2018-01-19T04:23:46.324Z,21.60
2018-01-19T04:26:13.876Z,21.20
2018-01-19T04:28:41.315Z,16.10
2018-01-19T04:31:09.666Z,21.37
2018-01-19T04:33:37.315Z,17.90
2018-01-19T04:36:06.122Z,16.83
2018-01-19T04:38:34.595Z,14.37
2018-01-19T04:41:02.095Z,15.87
2018-01-19T04:43:29.599Z,14.53
2018-01-19T04:45:57.486Z,15.13
2018-01-19T04:48:24.990Z,15.90
2018-01-19T04:50:52.810Z,24.93
2018-01-19T04:53:20.722Z,17.43
2018-01-19T04:55:49.579Z,22.67
2018-01-19T04:58:17.226Z,24.63
2018-01-19T05:00:44.998Z,18.20
2018-01-19T05:03:12.502Z,25.70
2018-01-19T05:05:41.755Z,15.80
2018-01-19T05:08:10.250Z,15.93
2018-01-19T05:10:37.747Z,17.37
2018-01-19T05:13:05.353Z,22.27
2018-01-19T05:15:32.843Z,18.83
2018-01-19T05:18:00.527Z,15.20
2018-01-19T05:20:28.418Z,20.13
2018-01-19T05:22:56.641Z,15.77
2018-01-19T05:25:24.140Z,14.40
2018-01-19T05:27:52.215Z,18.97
2018-01-19T05:30:19.745Z,11.67
2018-01-19T05:32:47.419Z,14.13
2018-01-19T05:35:15.039Z,14.70
2018-01-19T05:37:44.800Z,15.97
2018-01-19T05:40:12.679Z,16.73
2018-01-19T05:42:40.174Z,22.40
2018-01-19T05:45:08.722Z,19.93
2018-01-19T05:47:36.228Z,21.20
2018-01-19T05:50:04.258Z,10.60
2018-01-19T05:52:31.749Z,17.90
2018-01-19T05:54:59.478Z,12.47
2018-01-19T05:57:27.234Z,15.37
2018-01-19T05:59:54.738Z,13.63
2018-01-19T06:02:22.743Z,16.50
2018-01-19T06:04:50.227Z,10.13
2018-01-19T06:07:18.131Z,14.90
2018-01-19T06:09:46.398Z,12.27
2018-01-19T06:12:14.898Z,19.53
2018-01-19T06:14:43.482Z,19.23
2018-01-19T06:17:11.155Z,11.10
2018-01-19T06:19:38.651Z,9.93
2018-01-19T06:22:06.195Z,11.93
2018-01-19T06:24:34.147Z,14.40
2018-01-19T06:27:02.248Z,18.03
2018-01-19T06:29:30.008Z,16.83
2018-01-19T06:31:57.766Z,16.83
2018-01-19T06:34:25.267Z,9.70
2018-01-19T06:36:53.127Z,17.27
2018-01-19T06:39:21.058Z,12.00
2018-01-19T06:41:48.605Z,12.33
2018-01-19T06:44:16.091Z,10.83
2018-01-19T06:46:44.370Z,11.50
2018-01-19T06:49:11.889Z,13.20
2018-01-19T06:51:39.594Z,13.33
2018-01-19T06:54:07.642Z,10.80
2018-01-19T06:56:35.531Z,15.57
2018-01-19T06:59:03.179Z,12.40
2018-01-19T07:01:30.802Z,12.30
2018-01-19T07:04:00.012Z,11.57
2018-01-19T07:06:27.704Z,23.83
2018-01-19T07:08:55.319Z,15.77
2018-01-19T07:11:22.914Z,12.10
2018-01-19T07:13:50.947Z,15.43
2018-01-19T07:16:18.451Z,10.07
2018-01-19T07:18:46.730Z,20.90
2018-01-19T07:21:14.246Z,18.93
2018-01-19T07:23:42.311Z,15.17
2018-01-19T07:26:10.019Z,19.47
2018-01-19T07:28:37.569Z,18.00
2018-01-19T07:31:05.331Z,13.23
2018-01-19T07:33:33.272Z,17.23
2018-01-19T07:36:00.851Z,15.47
2018-01-19T07:38:28.742Z,12.80
2018-01-19T07:40:56.350Z,13.00
2018-01-19T07:43:23.850Z,13.70
2018-01-19T07:45:51.353Z,13.97
2018-01-19T07:48:19.767Z,15.70
2018-01-19T07:50:47.650Z,18.23
2018-01-19T07:53:15.200Z,16.10
2018-01-19T07:55:43.089Z,20.93
2018-01-19T07:58:12.210Z,12.80
2018-01-19T08:00:40.119Z,18.33
2018-01-19T08:03:08.931Z,16.60
2018-01-19T08:05:37.400Z,22.30
2018-01-19T08:08:05.798Z,14.63
2018-01-19T08:10:34.458Z,13.97
2018-01-19T08:13:01.978Z,14.87
2018-01-19T08:15:29.473Z,23.77
2018-01-19T08:17:57.138Z,17.50
2018-01-19T08:20:26.287Z,14.53
2018-01-19T08:22:54.815Z,20.17
2018-01-19T08:25:22.527Z,15.77
2018-01-19T08:27:50.339Z,17.57
2018-01-19T08:30:18.244Z,20.73
2018-01-19T08:32:47.394Z,13.80
2018-01-19T08:35:15.810Z,11.30
2018-01-19T08:37:43.728Z,16.93
2018-01-19T08:40:11.206Z,21.40
2018-01-19T08:42:39.314Z,21.80
2018-01-19T08:45:06.823Z,16.90
2018-01-19T08:47:34.330Z,18.43
2018-01-19T08:50:02.672Z,22.37
2018-01-19T08:52:30.707Z,30.17
2018-01-19T08:54:58.504Z,21.27
2018-01-19T08:57:26.007Z,23.97
2018-01-19T08:59:53.727Z,18.27
2018-01-19T09:02:23.074Z,31.03
2018-01-19T09:04:51.083Z,22.80
2018-01-19T09:07:19.088Z,26.43
2018-01-19T09:09:46.628Z,18.60
2018-01-19T09:12:14.847Z,25.97
2018-01-19T09:14:43.392Z,20.13
2018-01-19T09:17:11.003Z,27.37
2018-01-19T09:19:38.611Z,26.83
2018-01-19T09:22:07.227Z,28.43
2018-01-19T09:24:34.740Z,19.93
2018-01-19T09:27:02.999Z,27.20
2018-01-19T09:29:31.353Z,27.67
2018-01-19T09:31:58.883Z,28.90
2018-01-19T09:34:27.627Z,17.83
2018-01-19T09:36:55.126Z,29.13
2018-01-19T09:39:22.651Z,31.20
2018-01-19T09:41:50.142Z,22.30
2018-01-19T09:44:17.780Z,33.13
2018-01-19T09:46:45.287Z,34.53
2018-01-19T09:49:13.003Z,33.33
2018-01-19T09:51:40.759Z,38.17
2018-01-19T09:54:08.278Z,45.67
2018-01-19T09:56:35.974Z,32.77
2018-01-19T09:59:03.520Z,35.93
2018-01-19T10:01:31.171Z,41.23
2018-01-19T10:03:58.962Z,35.13
2018-01-19T10:06:27.971Z,35.53
2018-01-19T10:08:56.295Z,37.40
2018-01-19T10:11:23.800Z,35.23
2018-01-19T10:13:51.362Z,33.57
2018-01-19T10:16:19.005Z,39.90
2018-01-19T10:18:46.504Z,53.63
2018-01-19T10:21:14.403Z,32.20
2018-01-19T10:23:43.213Z,43.87
2018-01-19T10:26:10.715Z,32.50
2018-01-19T10:28:38.434Z,40.07
2018-01-19T10:31:06.077Z,36.00
2018-01-19T10:33:33.624Z,53.67
2018-01-19T10:36:01.425Z,41.37
2018-01-19T10:38:28.919Z,37.90
2018-01-19T10:40:57.134Z,38.20
2018-01-19T10:43:24.625Z,43.20
2018-01-19T10:45:53.086Z,51.03
2018-01-19T10:48:20.601Z,38.30
2018-01-19T10:50:48.924Z,39.33
2018-01-19T10:53:16.687Z,45.73
2018-01-19T10:55:44.199Z,49.80
2018-01-19T10:58:11.703Z,50.87
2018-01-19T11:00:39.206Z,53.00
2018-01-19T11:03:09.498Z,45.47
2018-01-19T11:05:36.994Z,41.10
2018-01-19T11:08:04.816Z,65.57
2018-01-19T11:10:33.187Z,53.83
2018-01-19T11:13:00.707Z,63.77
2018-01-19T11:15:29.327Z,54.77
2018-01-19T11:17:56.844Z,52.37
2018-01-19T11:20:24.509Z,54.10
2018-01-19T11:22:52.015Z,66.40
2018-01-19T11:25:19.825Z,57.73
2018-01-19T11:27:47.268Z,57.93
2018-01-19T11:30:15.579Z,55.63
2018-01-19T11:32:43.863Z,52.33
2018-01-19T11:35:11.767Z,51.83
2018-01-19T11:37:39.266Z,60.00
2018-01-19T11:40:06.962Z,59.70
2018-01-19T11:42:34.467Z,56.40
2018-01-19T11:45:03.131Z,48.80
2018-01-19T11:47:31.086Z,51.27
2018-01-19T11:49:59.353Z,46.43
2018-01-19T11:52:27.007Z,56.10
2018-01-19T11:54:54.771Z,46.17
2018-01-19T11:57:22.280Z,54.13
2018-01-19T11:59:49.997Z,48.40
2018-01-19T12:02:17.495Z,54.63
2018-01-19T12:04:45.221Z,58.37
2018-01-19T12:07:12.743Z,62.20
2018-01-19T12:09:41.305Z,63.83
2018-01-19T12:12:09.039Z,75.37
2018-01-19T12:14:36.986Z,64.73
2018-01-19T12:17:04.611Z,75.50
2018-01-19T12:19:32.210Z,74.87
2018-01-19T12:22:00.528Z,72.13
2018-01-19T12:24:28.043Z,73.90
2018-01-19T12:26:55.665Z,68.10
2018-01-19T12:29:23.384Z,77.13
2018-01-19T12:31:50.882Z,69.23
2018-01-19T12:34:19.292Z,64.97
2018-01-19T12:36:47.054Z,77.07
2018-01-19T12:39:15.212Z,80.93
2018-01-19T12:41:42.900Z,71.97
2018-01-19T12:44:10.407Z,68.53
2018-01-19T12:46:39.041Z,58.27
2018-01-19T12:49:06.807Z,71.30
2018-01-19T12:51:34.298Z,74.03
2018-01-19T12:54:02.924Z,53.93
2018-01-19T12:56:31.292Z,57.40
2018-01-19T12:58:58.791Z,53.70
2018-01-19T13:01:26.308Z,53.57
2018-01-19T13:03:53.810Z,40.37
2018-01-19T13:06:21.430Z,50.53
2018-01-19T13:08:48.927Z,52.03
2018-01-19T13:11:17.956Z,44.00
2018-01-19T13:13:45.463Z,50.57
2018-01-19T13:16:13.140Z,40.03
2018-01-19T13:18:40.888Z,48.53
2018-01-19T13:21:08.400Z,44.43
2018-01-19T13:23:36.107Z,46.53
2018-01-19T13:26:03.620Z,41.90
2018-01-19T13:28:31.122Z,42.03
2018-01-19T13:30:59.724Z,42.70
2018-01-19T13:33:27.469Z,48.90
2018-01-19T13:35:55.538Z,45.30
2018-01-19T13:38:23.301Z,36.40
2018-01-19T13:40:51.715Z,36.83
2018-01-19T13:43:19.216Z,37.63
2018-01-19T13:45:47.848Z,36.97
2018-01-19T13:48:15.352Z,38.60
2018-01-19T13:50:43.347Z,46.40
2018-01-19T13:53:11.396Z,36.20
2018-01-19T13:55:39.454Z,37.93
2018-01-19T13:58:06.960Z,44.30
2018-01-19T14:00:35.296Z,35.43
2018-01-19T14:03:03.099Z,35.47
2018-01-19T14:05:30.726Z,43.97
2018-01-19T14:07:58.290Z,40.63
2018-01-19T14:10:26.971Z,41.60
2018-01-19T14:12:54.472Z,40.50
2018-01-19T14:15:23.989Z,52.03
2018-01-19T14:17:52.264Z,37.97
2018-01-19T14:20:19.761Z,43.47
2018-01-19T14:22:47.366Z,39.20
2018-01-19T14:25:15.250Z,45.20
2018-01-19T14:27:43.521Z,42.27
2018-01-19T14:30:11.837Z,46.47
2018-01-19T14:32:39.939Z,30.73
2018-01-19T14:35:07.853Z,45.13
2018-01-19T14:37:36.103Z,39.53
2018-01-19T14:40:03.634Z,42.57
2018-01-19T14:42:31.276Z,39.60
2018-01-19T14:45:00.326Z,44.70
2018-01-19T14:47:29.171Z,39.57
2018-01-19T14:49:56.739Z,54.27
2018-01-19T14:52:25.335Z,40.33
2018-01-19T14:54:53.495Z,50.23
2018-01-19T14:57:20.989Z,43.03
2018-01-19T14:59:49.959Z,43.80
2018-01-19T15:02:17.719Z,40.97
2018-01-19T15:04:45.235Z,43.63
2018-01-19T15:07:12.927Z,63.57
2018-01-19T15:09:40.769Z,50.10
2018-01-19T15:12:08.247Z,46.10
2018-01-19T15:14:35.903Z,44.57
2018-01-19T15:17:04.190Z,48.67
2018-01-19T15:19:31.747Z,45.43
2018-01-19T15:21:59.511Z,40.83
2018-01-19T15:24:27.286Z,50.50
2018-01-19T15:26:54.894Z,37.70
2018-01-19T15:29:22.676Z,51.70
2018-01-19T15:31:50.235Z,43.67
2018-01-19T15:34:17.801Z,40.00
2018-01-19T15:36:45.299Z,42.10
2018-01-19T15:39:12.935Z,52.70
2018-01-19T15:41:40.699Z,38.00
2018-01-19T15:44:08.198Z,39.33
2018-01-19T15:46:36.530Z,44.93
2018-01-19T15:49:04.295Z,44.50
2018-01-19T15:51:32.663Z,48.93
2018-01-19T15:54:00.168Z,46.30
2018-01-19T15:56:27.932Z,39.90
2018-01-19T15:58:55.640Z,42.37
2018-01-19T16:01:23.263Z,41.13
2018-01-19T16:03:51.519Z,33.07
2018-01-19T16:06:19.022Z,35.83
2018-01-19T16:08:46.538Z,37.80
2018-01-19T16:11:14.041Z,41.83
2018-01-19T16:13:41.540Z,34.97
2018-01-19T16:16:09.062Z,37.23
2018-01-19T16:18:36.591Z,41.30
2018-01-19T16:21:04.214Z,38.40
2018-01-19T16:23:31.758Z,43.57
2018-01-19T16:25:59.482Z,38.50
2018-01-19T16:28:27.619Z,39.53
2018-01-19T16:30:56.615Z,38.57
2018-01-19T16:33:24.358Z,33.00
2018-01-19T16:35:52.311Z,39.90
2018-01-19T16:38:20.952Z,34.43
2018-01-19T16:40:49.488Z,40.07
2018-01-19T16:43:17.555Z,39.63
2018-01-19T16:45:45.107Z,46.63
2018-01-19T16:48:13.262Z,36.53
2018-01-19T16:50:40.823Z,39.80
2018-01-19T16:53:09.135Z,41.73
2018-01-19T16:55:37.239Z,39.90
2018-01-19T16:58:04.747Z,41.60
2018-01-19T17:00:32.246Z,38.07
2018-01-19T17:03:00.701Z,35.07
2018-01-19T17:05:28.195Z,36.53
2018-01-19T17:07:56.732Z,30.90
2018-01-19T17:10:24.810Z,30.77
2018-01-19T17:12:52.320Z,42.40
2018-01-19T17:15:20.322Z,29.53
2018-01-19T17:17:48.271Z,46.03
2018-01-19T17:20:15.764Z,25.97
2018-01-19T17:22:43.662Z,32.13
2018-01-19T17:25:11.163Z,31.60
2018-01-19T17:27:38.915Z,30.90
2018-01-19T17:30:06.423Z,34.40
2018-01-19T17:32:34.351Z,30.20
2018-01-19T17:35:02.247Z,27.33
2018-01-19T17:37:29.887Z,26.47
2018-01-19T17:39:57.391Z,25.97
2018-01-19T17:42:25.122Z,24.30
2018-01-19T17:44:52.707Z,21.33
2018-01-19T17:47:20.209Z,22.65
2018-01-19T17:49:47.766Z,20.80
2018-01-19T17:52:15.563Z,21.13
2018-01-19T17:54:43.891Z,23.53
2018-01-19T17:57:11.985Z,27.73
2018-01-19T17:59:39.486Z,23.37
2018-01-19T18:02:06.991Z,22.43
2018-01-19T18:04:34.564Z,23.23
2018-01-19T18:07:03.083Z,24.47
2018-01-19T18:09:32.108Z,24.73
2018-01-19T18:11:59.795Z,30.40
2018-01-19T18:14:27.580Z,29.80
2018-01-19T18:16:55.786Z,28.10
2018-01-19T18:19:23.727Z,33.13
2018-01-19T18:21:51.486Z,27.23
2018-01-19T18:24:19.601Z,21.53
2018-01-19T18:26:47.142Z,23.13
2018-01-19T18:29:14.782Z,22.90
2018-01-19T18:31:42.752Z,23.50
2018-01-19T18:34:10.617Z,29.83
2018-01-19T18:36:38.144Z,23.70
2018-01-19T18:39:05.656Z,20.47
2018-01-19T18:41:34.215Z,17.80
2018-01-19T18:44:02.108Z,22.77
2018-01-19T18:46:30.383Z,26.67
2018-01-19T18:48:57.920Z,22.20
2018-01-19T18:51:25.558Z,25.00
2018-01-19T18:53:53.451Z,23.90
2018-01-19T18:56:21.736Z,26.73
2018-01-19T18:58:50.386Z,21.70
2018-01-19T19:01:17.902Z,23.40
2018-01-19T19:03:45.483Z,27.47
2018-01-19T19:06:12.987Z,22.57
2018-01-19T19:08:41.246Z,21.37
2018-01-19T19:11:08.977Z,24.13
2018-01-19T19:13:36.644Z,26.77
2018-01-19T19:16:04.465Z,24.33
2018-01-19T19:18:32.310Z,21.90
2018-01-19T19:20:59.936Z,30.23
2018-01-19T19:23:28.513Z,27.13
2018-01-19T19:25:56.999Z,24.10
2018-01-19T19:28:25.131Z,23.37
2018-01-19T19:30:52.846Z,34.63
2018-01-19T19:33:21.199Z,33.43
2018-01-19T19:35:49.535Z,30.80
2018-01-19T19:38:17.079Z,39.10
2018-01-19T19:40:44.579Z,28.20
2018-01-19T19:43:12.087Z,22.47
2018-01-19T19:45:39.743Z,28.50
2018-01-19T19:48:07.268Z,28.00
2018-01-19T19:50:34.991Z,21.80
2018-01-19T19:53:02.631Z,29.03
2018-01-19T19:55:30.191Z,22.27
2018-01-19T19:57:57.708Z,27.57
2018-01-19T20:00:25.381Z,33.27
2018-01-19T20:02:54.268Z,26.37
2018-01-19T20:05:22.153Z,24.67
2018-01-19T20:07:49.648Z,24.87
2018-01-19T20:10:18.047Z,27.80
2018-01-19T20:12:46.345Z,30.40
2018-01-19T20:15:13.929Z,24.00
2018-01-19T20:17:41.463Z,21.93
2018-01-19T20:20:09.674Z,20.93
2018-01-19T20:22:37.191Z,29.40
2018-01-19T20:25:04.848Z,26.40
2018-01-19T20:27:33.227Z,22.53
2018-01-19T20:30:00.771Z,21.50
2018-01-19T20:32:28.614Z,20.83
2018-01-19T20:34:56.884Z,27.57
2018-01-19T20:37:24.592Z,16.30
2018-01-19T20:39:52.387Z,16.97
2018-01-19T20:42:20.150Z,19.30
2018-01-19T20:44:48.046Z,18.50
2018-01-19T20:47:15.683Z,18.63
2018-01-19T20:49:43.456Z,16.97
2018-01-19T20:52:11.211Z,9.80
2018-01-19T20:54:40.510Z,9.40
2018-01-19T20:57:08.042Z,12.17
2018-01-19T20:59:35.693Z,11.70
2018-01-19T21:02:03.190Z,11.07
2018-01-19T21:04:30.737Z,16.33
2018-01-19T21:06:58.226Z,16.17
2018-01-19T21:09:26.494Z,16.23
2018-01-19T21:11:55.152Z,19.40
2018-01-19T21:14:22.668Z,19.40
2018-01-19T21:16:50.371Z,22.03
2018-01-19T21:19:17.887Z,19.90
2018-01-19T21:21:45.534Z,16.40
2018-01-19T21:24:13.061Z,22.13
2018-01-19T21:26:40.579Z,22.30
2018-01-19T21:29:08.570Z,24.90
2018-01-19T21:31:36.073Z,20.07
2018-01-19T21:34:03.590Z,24.17
2018-01-19T21:36:31.875Z,25.73
2018-01-19T21:39:00.232Z,27.13
2018-01-19T21:41:27.715Z,29.10
2018-01-19T21:43:55.248Z,30.33
2018-01-19T21:46:22.750Z,25.70
2018-01-19T21:48:51.304Z,26.27
2018-01-19T21:51:18.817Z,26.63
2018-01-19T21:53:46.483Z,30.43
2018-01-19T21:56:14.283Z,29.20
2018-01-19T21:58:42.183Z,32.67
2018-01-19T22:01:09.692Z,33.83
2018-01-19T22:03:37.251Z,34.43
2018-01-19T22:06:05.028Z,33.13
2018-01-19T22:08:32.522Z,31.10
2018-01-19T22:11:00.234Z,22.47
2018-01-19T22:13:27.718Z,32.53
2018-01-19T22:15:56.349Z,33.70
2018-01-19T22:18:23.846Z,38.23
2018-01-19T22:20:52.831Z,29.67
2018-01-19T22:23:20.329Z,36.67
2018-01-19T22:25:47.830Z,39.53
2018-01-19T22:28:15.480Z,24.97
2018-01-19T22:30:42.987Z,39.80
2018-01-19T22:33:10.690Z,27.10
2018-01-19T22:35:38.591Z,40.20
2018-01-19T22:38:06.890Z,31.83
2018-01-19T22:40:34.800Z,34.23
2018-01-19T22:43:03.062Z,32.83
2018-01-19T22:45:30.782Z,35.80
2018-01-19T22:47:58.282Z,37.53
2018-01-19T22:50:27.323Z,30.53
2018-01-19T22:52:55.958Z,29.40
2018-01-19T22:55:24.155Z,33.57
2018-01-19T22:57:51.750Z,44.00
2018-01-19T23:00:20.078Z,39.33
2018-01-19T23:02:47.586Z,33.50
2018-01-19T23:05:15.362Z,41.37
2018-01-19T23:07:42.857Z,39.43
2018-01-19T23:10:10.828Z,41.70
2018-01-19T23:12:38.335Z,33.13
2018-01-19T23:15:06.402Z,32.53
2018-01-19T23:17:34.167Z,52.73
2018-01-19T23:20:01.663Z,36.70
2018-01-19T23:22:29.888Z,31.03
2018-01-19T23:24:57.414Z,31.53
2018-01-19T23:27:24.928Z,32.00
2018-01-19T23:29:52.422Z,27.20
2018-01-19T23:32:20.131Z,32.50
2018-01-19T23:34:47.894Z,43.43
2018-01-19T23:37:15.655Z,35.13
2018-01-19T23:39:43.270Z,27.87
2018-01-19T23:42:11.540Z,35.93
2018-01-19T23:44:39.260Z,35.17
2018-01-19T23:47:07.327Z,32.63
2018-01-19T23:49:34.835Z,35.53
2018-01-19T23:52:02.552Z,31.20
2018-01-19T23:54:31.958Z,31.10
2018-01-19T23:57:00.583Z,28.70
2018-01-19T23:59:29.848Z,30.40
